createdAt,value
2023-09-22T00:08:16.561Z,0.80
2023-09-22T00:18:20.630Z,0.90
2023-09-22T00:28:23.604Z,1.00
2023-09-22T00:38:29.264Z,0.90
2023-09-22T00:48:35.232Z,0.80
2023-09-22T00:58:39.350Z,1.00
2023-09-22T01:08:42.126Z,0.95
2023-09-22T01:18:46.239Z,1.00
2023-09-22T01:28:50.515Z,0.82
2023-09-22T01:38:53.253Z,1.10
2023-09-22T01:48:57.367Z,1.00
2023-09-22T01:59:00.469Z,0.80
2023-09-22T02:09:05.310Z,1.00
2023-09-22T02:19:09.289Z,0.90
2023-09-22T02:29:13.479Z,0.88
2023-09-22T02:39:16.965Z,0.90
2023-09-22T02:49:21.135Z,1.10
2023-09-22T02:59:23.996Z,0.90
2023-09-22T03:09:28.191Z,1.10
2023-09-22T03:19:30.935Z,0.80
2023-09-22T03:29:37.987Z,1.05
2023-09-22T03:39:40.770Z,1.00
2023-09-22T03:49:46.202Z,0.93
2023-09-22T03:59:49.961Z,0.90
2023-09-22T04:09:54.036Z,1.02
2023-09-22T04:19:56.911Z,1.13
2023-09-22T04:30:02.088Z,1.00
2023-09-22T04:40:10.561Z,1.10
2023-09-22T04:50:16.700Z,1.20
2023-09-22T05:00:23.584Z,1.00
2023-09-22T05:10:28.604Z,1.23
2023-09-22T05:20:33.651Z,1.30
2023-09-22T05:30:40.244Z,1.42
2023-09-22T05:40:43.033Z,1.10
2023-09-22T05:50:56.518Z,0.93
2023-09-22T06:01:00.185Z,1.35
2023-09-22T06:11:04.362Z,1.70
2023-09-22T06:21:07.345Z,1.20
2023-09-22T06:31:12.268Z,1.90
2023-09-22T06:41:19.167Z,1.63
2023-09-22T06:51:23.223Z,2.00
2023-09-22T07:01:26.103Z,2.05
2023-09-22T07:11:32.474Z,2.28
2023-09-22T07:21:35.993Z,2.72
2023-09-22T07:31:40.455Z,2.10
2023-09-22T07:41:43.200Z,1.80
2023-09-22T07:51:47.371Z,1.40
2023-09-22T08:01:50.394Z,1.50
2023-09-22T08:11:54.803Z,1.20
2023-09-22T08:21:59.661Z,1.15
2023-09-22T08:32:08.481Z,0.95
2023-09-22T08:42:15.145Z,0.63
2023-09-22T08:52:22.103Z,0.85
2023-09-22T09:02:27.477Z,0.70
2023-09-22T09:12:34.989Z,0.60
2023-09-22T09:22:38.310Z,0.70
2023-09-22T09:32:44.020Z,0.70
2023-09-22T09:42:47.494Z,0.65
2023-09-22T09:52:56.188Z,0.90
2023-09-22T10:03:02.540Z,0.70
2023-09-22T10:13:08.415Z,0.50
2023-09-22T10:23:17.817Z,0.80
2023-09-22T10:33:33.447Z,0.70
2023-09-22T10:43:37.478Z,0.65
2023-09-22T10:53:41.932Z,0.60
2023-09-22T11:03:54.514Z,0.75
2023-09-22T11:13:58.893Z,0.70
2023-09-22T11:24:06.403Z,0.63
2023-09-22T11:34:10.477Z,0.90
2023-09-22T11:44:15.258Z,0.80
2023-09-22T11:54:20.874Z,0.60
2023-09-22T12:04:24.197Z,0.52
2023-09-22T12:14:28.581Z,0.60
2023-09-22T12:24:31.652Z,0.52
2023-09-22T12:34:35.829Z,0.80
2023-09-22T12:44:39.428Z,0.52
2023-09-22T12:54:43.576Z,0.60
2023-09-22T13:04:47.414Z,0.70
2023-09-22T13:14:56.088Z,0.70
2023-09-22T13:24:59.179Z,0.68
2023-09-22T13:35:04.559Z,0.93
2023-09-22T13:45:08.664Z,0.73
2023-09-22T13:55:13.863Z,0.77
2023-09-22T14:05:16.895Z,0.90
2023-09-22T14:15:21.895Z,1.05
2023-09-22T14:25:25.733Z,0.80
2023-09-22T14:35:29.896Z,0.70
2023-09-22T14:45:32.937Z,0.80
2023-09-22T14:55:37.611Z,0.60
2023-09-22T15:05:40.620Z,0.63
2023-09-22T15:15:45.006Z,0.70
2023-09-22T15:25:48.531Z,1.00
2023-09-22T15:35:54.686Z,0.98
2023-09-22T15:45:57.669Z,0.75
2023-09-22T15:56:01.992Z,0.70
2023-09-22T16:06:07.521Z,0.82
2023-09-22T16:16:12.263Z,1.05
2023-09-22T16:26:15.020Z,0.50
2023-09-22T16:36:19.152Z,0.60
2023-09-22T16:46:21.932Z,0.73
2023-09-22T16:56:26.440Z,0.50
2023-09-22T17:06:29.222Z,0.60
2023-09-22T17:16:33.759Z,0.50
2023-09-22T17:26:36.645Z,0.73
2023-09-22T17:36:40.744Z,0.77
2023-09-22T17:46:43.871Z,0.50
2023-09-22T17:56:48.009Z,0.43
2023-09-22T18:06:51.115Z,0.60
2023-09-22T18:16:55.466Z,0.40
2023-09-22T18:26:58.727Z,0.40
2023-09-22T18:37:02.982Z,0.30
2023-09-22T18:47:05.769Z,0.40
2023-09-22T18:57:09.848Z,0.55
2023-09-22T19:07:14.655Z,0.60
2023-09-22T19:17:23.793Z,0.60
2023-09-22T19:27:26.697Z,0.70
2023-09-22T19:37:30.992Z,0.70
2023-09-22T19:47:36.192Z,0.50
2023-09-22T19:57:41.017Z,0.60
2023-09-22T20:07:44.081Z,0.40
2023-09-22T20:17:48.434Z,0.50
2023-09-22T20:27:51.288Z,0.85
2023-09-22T20:37:55.368Z,0.57
2023-09-22T20:47:58.227Z,0.50
2023-09-22T20:58:02.644Z,0.55
2023-09-22T21:08:06.254Z,0.50
2023-09-22T21:18:10.440Z,0.47
2023-09-22T21:28:13.497Z,0.80
2023-09-22T21:38:17.720Z,1.20
2023-09-22T21:48:20.490Z,0.40
2023-09-22T21:58:25.751Z,0.43
2023-09-22T22:08:28.776Z,0.40
2023-09-22T22:18:33.735Z,0.52
2023-09-22T22:28:37.215Z,0.55
2023-09-22T22:38:41.251Z,0.40
2023-09-22T22:48:44.300Z,0.52
2023-09-22T22:58:52.429Z,0.30
2023-09-22T23:08:55.331Z,0.63
2023-09-22T23:19:01.145Z,0.52
2023-09-22T23:29:03.856Z,0.60
2023-09-22T23:39:09.934Z,0.65
2023-09-22T23:49:14.575Z,0.60
2023-09-22T23:59:18.755Z,0.60
